createdAt,value
2022-12-18T07:55:47.931Z,-5.02
2022-12-18T07:58:18.581Z,-4.85
2022-12-18T08:00:45.884Z,-4.65
2022-12-18T08:03:15.311Z,-4.38
2022-12-18T08:05:42.576Z,-4.23
2022-12-18T08:08:09.861Z,-3.95
2022-12-18T08:10:38.263Z,-3.84
2022-12-18T08:13:05.550Z,-3.78
2022-12-18T08:15:32.819Z,-3.82
2022-12-18T08:18:00.132Z,-3.58
2022-12-18T08:20:27.470Z,-3.62
2022-12-18T08:22:55.176Z,-3.57
2022-12-18T08:25:22.476Z,-3.34
2022-12-18T08:27:49.763Z,-3.39
2022-12-18T08:30:17.127Z,-3.06
2022-12-18T08:32:45.103Z,-3.12
2022-12-18T08:35:13.006Z,-2.96
2022-12-18T08:37:40.297Z,-2.81
2022-12-18T08:40:09.872Z,-2.77
2022-12-18T08:42:56.133Z,-2.54
2022-12-18T08:45:23.396Z,-2.48
2022-12-18T08:47:50.656Z,-2.29
2022-12-18T08:50:18.329Z,-2.28
2022-12-18T08:52:45.603Z,-2.06
2022-12-18T08:55:14.455Z,-1.91
2022-12-18T08:57:41.751Z,-1.68
2022-12-18T09:00:10.700Z,-1.52
2022-12-18T09:02:38.061Z,-1.58
2022-12-18T09:05:06.307Z,-1.39
2022-12-18T09:07:33.580Z,-1.11
2022-12-18T09:10:00.937Z,-0.85
2022-12-18T09:12:28.212Z,-0.62
2022-12-18T09:14:55.550Z,-0.49
2022-12-18T09:17:23.096Z,-0.37
2022-12-18T09:19:50.503Z,-0.15
2022-12-18T09:22:17.769Z,0.02
2022-12-18T09:24:45.033Z,0.28
2022-12-18T09:27:12.294Z,0.54
2022-12-18T09:29:39.578Z,0.69
2022-12-18T09:32:06.959Z,0.76
2022-12-18T09:34:34.339Z,0.92
2022-12-18T09:37:01.647Z,0.89
2022-12-18T09:39:28.911Z,1.29
2022-12-18T09:42:00.426Z,1.51
2022-12-18T09:44:45.098Z,1.62
2022-12-18T09:47:35.428Z,1.85
2022-12-18T09:50:31.038Z,1.96
2022-12-18T09:53:06.814Z,2.13
2022-12-18T09:55:43.929Z,2.47
2022-12-18T09:58:30.728Z,2.56
2022-12-18T10:00:58.821Z,2.54
2022-12-18T10:03:26.519Z,2.59
2022-12-18T10:06:33.779Z,2.72
2022-12-18T10:10:28.524Z,2.54
2022-12-18T10:13:50.951Z,2.75
2022-12-18T10:16:32.503Z,2.72
2022-12-18T10:19:42.484Z,2.84
2022-12-18T10:22:43.422Z,2.97
2022-12-18T10:25:48.930Z,2.78
2022-12-18T10:28:19.804Z,2.81
2022-12-18T10:30:47.598Z,2.87
2022-12-18T10:33:24.548Z,2.90
2022-12-18T10:35:52.704Z,3.06
2022-12-18T10:38:20.238Z,3.34
2022-12-18T10:41:26.862Z,3.27
2022-12-18T10:44:23.949Z,3.69
2022-12-18T10:47:10.162Z,3.72
2022-12-18T10:49:53.667Z,3.91
2022-12-18T10:52:26.950Z,4.10
2022-12-18T10:55:04.215Z,4.12
2022-12-18T10:57:41.496Z,4.03
2022-12-18T11:00:32.967Z,4.45
2022-12-18T11:03:00.755Z,4.28
2022-12-18T11:05:34.932Z,4.36
2022-12-18T11:08:03.495Z,4.31
2022-12-18T11:10:40.148Z,4.24
2022-12-18T11:13:25.358Z,4.37
2022-12-18T11:15:53.594Z,4.42
2022-12-18T11:18:31.083Z,4.43
2022-12-18T11:21:08.620Z,4.33
2022-12-18T11:23:38.299Z,4.32
2022-12-18T11:26:07.036Z,4.22
2022-12-18T11:29:08.334Z,4.15
2022-12-18T11:31:35.666Z,4.16
2022-12-18T11:34:34.271Z,4.57
2022-12-18T11:37:04.430Z,4.49
2022-12-18T11:39:58.406Z,4.44
2022-12-18T11:42:52.833Z,4.38
2022-12-18T11:45:47.547Z,4.41
2022-12-18T11:48:44.254Z,4.79
2022-12-18T11:51:29.551Z,4.61
2022-12-18T11:53:56.842Z,4.72
2022-12-18T11:57:05.281Z,4.66
2022-12-18T12:00:13.234Z,4.89
2022-12-18T12:03:22.664Z,4.57
2022-12-18T12:06:26.433Z,4.66
2022-12-18T12:09:58.778Z,4.96
2022-12-18T12:13:28.259Z,4.78
2022-12-18T12:16:38.679Z,4.73
2022-12-18T12:19:45.116Z,4.61
2022-12-18T12:22:59.414Z,4.51
2022-12-18T12:25:50.933Z,4.50
2022-12-18T12:29:21.417Z,4.52
2022-12-18T12:32:46.077Z,4.08
2022-12-18T12:36:03.976Z,3.87
2022-12-18T12:38:51.645Z,3.84
2022-12-18T12:41:49.919Z,3.69
2022-12-18T12:44:29.329Z,3.84
2022-12-18T12:47:11.706Z,3.64
2022-12-18T12:49:41.007Z,3.65
2022-12-18T12:52:36.719Z,3.67
2022-12-18T12:55:14.917Z,3.67
2022-12-18T12:58:16.160Z,3.70
2022-12-18T13:01:19.919Z,3.55
2022-12-18T13:04:16.344Z,3.71
2022-12-18T13:07:14.920Z,3.68
2022-12-18T13:10:23.724Z,3.58
2022-12-18T13:12:58.781Z,3.64
2022-12-18T13:16:09.108Z,3.56
2022-12-18T13:18:36.940Z,3.54
2022-12-18T13:21:35.470Z,3.69
2022-12-18T13:24:31.937Z,3.50
2022-12-18T13:26:59.799Z,3.50
2022-12-18T13:29:56.482Z,3.48
2022-12-18T13:32:27.375Z,3.41
2022-12-18T13:35:22.798Z,3.30
2022-12-18T13:37:55.797Z,3.38
2022-12-18T13:40:42.074Z,3.35
2022-12-18T13:43:30.892Z,3.28
2022-12-18T13:46:47.100Z,3.27
2022-12-18T13:49:14.266Z,3.27
2022-12-18T13:51:53.179Z,3.20
2022-12-18T13:54:41.517Z,3.17
2022-12-18T13:57:41.763Z,3.21
2022-12-18T14:00:30.683Z,3.08
2022-12-18T14:03:00.438Z,3.13
2022-12-18T14:05:39.391Z,3.15
2022-12-18T14:08:15.929Z,3.23
2022-12-18T14:10:50.894Z,3.05
2022-12-18T14:13:42.991Z,3.13
2022-12-18T14:16:17.741Z,2.99
2022-12-18T14:18:59.112Z,3.10
2022-12-18T14:21:31.683Z,3.17
2022-12-18T14:24:21.822Z,3.05
2022-12-18T14:26:51.848Z,2.95
2022-12-18T14:29:32.034Z,3.01
2022-12-18T14:32:13.355Z,2.95
2022-12-18T14:34:52.172Z,3.02
2022-12-18T14:37:26.710Z,2.96
2022-12-18T14:40:11.285Z,2.79
2022-12-18T14:42:39.084Z,2.78
2022-12-18T14:45:43.161Z,2.75
2022-12-18T14:48:35.002Z,2.83
2022-12-18T14:51:28.939Z,2.75
2022-12-18T14:54:16.086Z,2.70
2022-12-18T14:57:22.135Z,2.67
2022-12-18T14:59:49.934Z,2.65
2022-12-18T15:02:27.662Z,2.59
2022-12-18T15:05:27.740Z,2.65
2022-12-18T15:07:59.863Z,2.54
2022-12-18T15:10:34.293Z,2.53
2022-12-18T15:13:02.410Z,2.58
2022-12-18T15:15:36.922Z,2.41
2022-12-18T15:18:11.322Z,2.46
2022-12-18T15:21:00.188Z,2.41
2022-12-18T15:23:45.406Z,2.44
2022-12-18T15:26:18.098Z,2.43
2022-12-18T15:28:56.920Z,2.35
2022-12-18T15:31:36.364Z,2.32
2022-12-18T15:34:14.584Z,2.34
2022-12-18T15:36:42.155Z,2.32
2022-12-18T15:39:14.169Z,2.36
2022-12-18T15:42:01.917Z,2.13
2022-12-18T15:44:29.714Z,2.19
2022-12-18T15:46:57.236Z,2.13
2022-12-18T15:49:24.731Z,2.15
2022-12-18T15:51:59.138Z,2.14
2022-12-18T15:54:45.584Z,2.25
2022-12-18T15:57:26.374Z,2.12
2022-12-18T16:00:00.097Z,2.20
2022-12-18T16:02:29.513Z,2.03
2022-12-18T16:04:57.562Z,2.17
2022-12-18T16:07:28.154Z,2.12
2022-12-18T16:09:58.820Z,2.13
2022-12-18T16:12:28.207Z,2.13
2022-12-18T16:14:55.481Z,2.11
2022-12-18T16:17:22.734Z,2.10
2022-12-18T16:19:50.092Z,2.03
2022-12-18T16:22:29.785Z,1.96
2022-12-18T16:24:58.913Z,2.05
2022-12-18T16:27:26.642Z,1.94
2022-12-18T16:29:53.978Z,2.05
2022-12-18T16:32:23.592Z,2.01
2022-12-18T16:34:51.780Z,1.98
2022-12-18T16:37:19.111Z,1.87
2022-12-18T16:39:46.549Z,2.02
2022-12-18T16:42:20.528Z,1.94
2022-12-18T16:44:50.533Z,1.97
2022-12-18T16:47:19.405Z,1.96
2022-12-18T16:49:47.229Z,2.11
2022-12-18T16:52:15.019Z,2.12
2022-12-18T16:54:42.304Z,2.11
2022-12-18T16:57:15.099Z,2.15
2022-12-18T16:59:42.585Z,1.97
2022-12-18T17:02:23.749Z,2.14
2022-12-18T17:04:57.895Z,1.96
2022-12-18T17:07:26.495Z,2.08
2022-12-18T17:09:54.334Z,2.00
2022-12-18T17:12:23.604Z,1.95
2022-12-18T17:14:51.615Z,1.88
2022-12-18T17:17:21.699Z,1.92
2022-12-18T17:19:50.390Z,1.95
2022-12-18T17:22:17.744Z,1.99
2022-12-18T17:24:46.154Z,1.87
2022-12-18T17:27:13.447Z,1.92
2022-12-18T17:29:46.837Z,2.01
2022-12-18T17:32:15.113Z,1.95
2022-12-18T17:34:42.429Z,2.01
2022-12-18T17:37:09.856Z,2.05
2022-12-18T17:39:37.343Z,1.99
2022-12-18T17:42:05.247Z,1.99
2022-12-18T17:44:34.341Z,1.96
2022-12-18T17:47:01.801Z,1.93
2022-12-18T17:49:29.396Z,1.85
2022-12-18T17:51:56.642Z,1.86
2022-12-18T17:54:23.890Z,1.90
2022-12-18T17:56:51.180Z,2.01
2022-12-18T17:59:18.474Z,1.99
2022-12-18T18:01:46.022Z,2.06
2022-12-18T18:04:14.645Z,1.91
2022-12-18T18:06:42.312Z,1.88
2022-12-18T18:09:16.312Z,1.97
2022-12-18T18:12:06.114Z,1.92
2022-12-18T18:14:33.662Z,1.90
2022-12-18T18:17:04.287Z,1.93
2022-12-18T18:19:34.212Z,1.88
2022-12-18T18:22:02.931Z,1.91
2022-12-18T18:24:30.743Z,1.93
2022-12-18T18:27:00.008Z,1.85
2022-12-18T18:29:30.496Z,1.94
2022-12-18T18:31:58.530Z,1.97
2022-12-18T18:34:31.930Z,1.87
2022-12-18T18:37:00.534Z,2.00
2022-12-18T18:39:30.060Z,1.86
2022-12-18T18:41:57.459Z,1.86
2022-12-18T18:44:26.025Z,1.86
2022-12-18T18:46:58.653Z,1.80
2022-12-18T18:49:28.333Z,1.87
2022-12-18T18:51:57.369Z,1.91
2022-12-18T18:54:26.491Z,1.88
2022-12-18T18:57:19.927Z,2.00
2022-12-18T18:59:42.351Z,1.97
2022-12-18T19:02:15.641Z,1.87
2022-12-18T19:04:45.880Z,1.95
2022-12-18T19:07:18.175Z,1.85
2022-12-18T19:09:57.895Z,1.82
2022-12-18T19:12:47.867Z,1.87
2022-12-18T19:15:15.146Z,1.92
2022-12-18T19:17:42.510Z,1.90
2022-12-18T19:20:14.416Z,1.98
2022-12-18T19:22:41.745Z,2.08
2022-12-18T19:25:10.182Z,1.96
2022-12-18T19:27:40.010Z,1.78
2022-12-18T19:30:08.927Z,1.91
2022-12-18T19:32:36.340Z,1.82
2022-12-18T19:35:04.043Z,1.80
2022-12-18T19:37:31.513Z,1.79
2022-12-18T19:39:58.867Z,1.77
2022-12-18T19:42:33.425Z,1.69
2022-12-18T19:45:02.869Z,1.81
2022-12-18T19:47:32.376Z,1.82
2022-12-18T19:49:59.671Z,1.78
2022-12-18T19:52:26.983Z,1.79
2022-12-18T19:54:54.347Z,1.70
2022-12-18T19:57:21.610Z,1.79
2022-12-18T19:59:48.947Z,1.85
2022-12-18T20:02:16.536Z,1.76
2022-12-18T20:04:43.934Z,1.80
2022-12-18T20:07:11.226Z,1.78
2022-12-18T20:09:38.800Z,1.79
2022-12-18T20:12:07.130Z,1.83
2022-12-18T20:14:34.640Z,1.82
2022-12-18T20:17:01.961Z,1.80
2022-12-18T20:19:29.983Z,1.81
2022-12-18T20:21:57.515Z,1.81
2022-12-18T20:24:24.866Z,1.83
2022-12-18T20:26:52.287Z,1.95
2022-12-18T20:29:19.550Z,1.87
2022-12-18T20:31:46.874Z,1.83
2022-12-18T20:34:14.241Z,1.85
2022-12-18T20:36:42.154Z,1.91
2022-12-18T20:39:10.128Z,1.95
2022-12-18T20:41:40.010Z,1.85
2022-12-18T20:44:22.597Z,1.93
2022-12-18T20:47:00.266Z,1.88
2022-12-18T20:49:30.900Z,1.99
2022-12-18T20:51:58.567Z,1.92
2022-12-18T20:54:27.889Z,1.92
2022-12-18T20:56:56.645Z,1.97
2022-12-18T20:59:25.642Z,2.03
2022-12-18T21:01:56.506Z,2.06
2022-12-18T21:04:24.918Z,1.92
2022-12-18T21:06:57.965Z,2.08
2022-12-18T21:09:38.203Z,2.11
2022-12-18T21:12:38.903Z,2.10
2022-12-18T21:15:11.009Z,2.09
2022-12-18T21:17:41.107Z,2.01
2022-12-18T21:20:17.799Z,2.11
2022-12-18T21:22:47.244Z,2.03
2022-12-18T21:25:14.601Z,1.94
2022-12-18T21:27:41.896Z,2.01
2022-12-18T21:30:10.005Z,1.96
2022-12-18T21:32:37.302Z,2.02
2022-12-18T21:35:05.358Z,1.95
2022-12-18T21:37:32.703Z,1.96
2022-12-18T21:39:59.986Z,2.05
2022-12-18T21:42:45.789Z,2.05
2022-12-18T21:45:13.079Z,2.07
2022-12-18T21:47:40.338Z,2.00
2022-12-18T21:50:08.127Z,2.07
2022-12-18T21:52:35.420Z,2.09
2022-12-18T21:55:08.897Z,2.08
2022-12-18T21:57:39.436Z,2.03
2022-12-18T22:00:18.371Z,2.08
2022-12-18T22:03:13.364Z,2.09
2022-12-18T22:05:36.379Z,2.05
2022-12-18T22:08:03.976Z,2.17
2022-12-18T22:10:31.322Z,2.02
2022-12-18T22:12:58.600Z,2.00
2022-12-18T22:15:25.879Z,2.14
2022-12-18T22:17:59.798Z,2.15
2022-12-18T22:20:29.715Z,2.13
2022-12-18T22:22:58.535Z,2.07
2022-12-18T22:25:25.840Z,2.02
2022-12-18T22:28:11.774Z,2.14
2022-12-18T22:30:39.424Z,2.11
2022-12-18T22:33:06.898Z,2.17
2022-12-18T22:35:34.218Z,2.17
2022-12-18T22:38:01.829Z,2.15
2022-12-18T22:40:29.631Z,2.19
2022-12-18T22:42:57.287Z,2.28
2022-12-18T22:45:27.908Z,2.25
2022-12-18T22:47:55.344Z,2.27
2022-12-18T22:50:22.637Z,2.26
2022-12-18T22:52:49.919Z,2.24
2022-12-18T22:55:17.272Z,2.16
2022-12-18T22:57:48.787Z,2.21
2022-12-18T23:00:21.026Z,2.13
2022-12-18T23:03:00.396Z,2.26
2022-12-18T23:05:30.811Z,2.19
2022-12-18T23:07:59.408Z,2.29
2022-12-18T23:10:27.292Z,2.22
2022-12-18T23:12:54.711Z,2.24
2022-12-18T23:15:27.765Z,2.29
2022-12-18T23:17:59.671Z,2.30
2022-12-18T23:20:30.551Z,2.29
2022-12-18T23:22:58.415Z,2.25
2022-12-18T23:25:25.682Z,2.24
2022-12-18T23:27:52.947Z,2.34
2022-12-18T23:30:20.198Z,2.30
2022-12-18T23:32:50.281Z,2.29
2022-12-18T23:35:18.430Z,2.30
2022-12-18T23:38:03.392Z,2.30
2022-12-18T23:40:30.822Z,2.24
2022-12-18T23:43:00.172Z,2.25
2022-12-18T23:45:27.510Z,2.22
2022-12-18T23:47:54.779Z,2.27
